createdAt,value
2018-03-21T00:02:08.633Z,76.91
2018-03-21T00:04:36.269Z,76.69
2018-03-21T00:07:03.909Z,76.93
2018-03-21T00:09:31.591Z,76.48
2018-03-21T00:11:59.211Z,76.57
2018-03-21T00:14:26.793Z,76.40
2018-03-21T00:16:54.439Z,76.56
2018-03-21T00:19:22.914Z,76.30
2018-03-21T00:21:50.494Z,76.21
2018-03-21T00:24:18.069Z,76.46
2018-03-21T00:26:45.941Z,76.52
2018-03-21T00:29:13.535Z,76.81
2018-03-21T00:31:41.180Z,76.74
2018-03-21T00:34:09.011Z,76.90
2018-03-21T00:36:36.591Z,76.81
2018-03-21T00:39:04.228Z,76.64
2018-03-21T00:41:31.872Z,76.82
2018-03-21T00:43:59.522Z,76.41
2018-03-21T00:46:27.103Z,76.30
2018-03-21T00:48:54.754Z,76.07
2018-03-21T00:51:22.321Z,76.52
2018-03-21T00:53:49.970Z,76.60
2018-03-21T00:56:17.601Z,76.85
2018-03-21T00:58:45.245Z,76.80
2018-03-21T01:01:13.573Z,77.01
2018-03-21T01:03:41.528Z,76.68
2018-03-21T01:06:09.729Z,76.40
2018-03-21T01:08:37.315Z,76.38
2018-03-21T01:11:04.973Z,76.31
2018-03-21T01:13:32.622Z,76.66
2018-03-21T01:16:00.865Z,76.97
2018-03-21T01:18:28.780Z,77.34
2018-03-21T01:20:56.368Z,77.20
2018-03-21T01:23:23.994Z,77.37
2018-03-21T01:25:51.880Z,77.27
2018-03-21T01:28:19.464Z,77.28
2018-03-21T01:30:47.053Z,77.33
2018-03-21T01:33:14.692Z,77.07
2018-03-21T01:35:43.153Z,77.10
2018-03-21T01:38:10.755Z,77.21
2018-03-21T01:40:38.405Z,77.18
2018-03-21T01:43:06.020Z,77.85
2018-03-21T01:45:33.638Z,77.63
2018-03-21T01:48:01.481Z,77.71
2018-03-21T01:50:29.139Z,78.05
2018-03-21T01:53:08.761Z,78.30
2018-03-21T01:55:36.346Z,78.13
2018-03-21T01:58:03.970Z,77.89
2018-03-21T02:00:31.852Z,77.90
2018-03-21T02:02:59.534Z,77.97
2018-03-21T02:05:27.104Z,77.99
2018-03-21T02:07:54.732Z,77.90
2018-03-21T02:10:23.255Z,78.11
2018-03-21T02:12:50.846Z,77.96
2018-03-21T02:15:18.498Z,78.12
2018-03-21T02:17:46.070Z,78.21
2018-03-21T02:20:13.673Z,78.52
2018-03-21T02:22:41.306Z,78.61
2018-03-21T02:25:08.892Z,78.62
2018-03-21T02:27:36.537Z,78.68
2018-03-21T02:30:04.448Z,78.54
2018-03-21T02:32:32.052Z,78.31
2018-03-21T02:34:59.637Z,78.40
2018-03-21T02:37:27.290Z,78.49
2018-03-21T02:39:54.879Z,78.23
2018-03-21T02:42:22.556Z,77.84
2018-03-21T02:44:50.232Z,77.62
2018-03-21T02:47:17.804Z,77.69
2018-03-21T02:49:45.388Z,77.68
2018-03-21T02:52:13.242Z,77.52
2018-03-21T02:54:40.902Z,77.65
2018-03-21T02:57:08.542Z,77.75
2018-03-21T02:59:36.222Z,78.06
2018-03-21T03:02:03.853Z,77.88
2018-03-21T03:04:31.698Z,77.81
2018-03-21T03:06:59.552Z,77.84
2018-03-21T03:09:27.183Z,78.25
2018-03-21T03:11:54.760Z,78.24
2018-03-21T03:14:22.411Z,78.56
2018-03-21T03:16:50.004Z,78.54
2018-03-21T03:19:17.657Z,78.72
2018-03-21T03:21:45.289Z,78.90
2018-03-21T03:24:12.938Z,79.26
2018-03-21T03:26:40.540Z,79.19
2018-03-21T03:29:08.429Z,79.46
2018-03-21T03:31:36.093Z,78.99
2018-03-21T03:34:03.696Z,78.82
2018-03-21T03:36:31.677Z,78.73
2018-03-21T03:38:59.322Z,78.94
2018-03-21T03:41:26.946Z,78.82
2018-03-21T03:43:54.597Z,78.89
2018-03-21T03:46:22.243Z,78.30
2018-03-21T03:48:49.833Z,78.47
2018-03-21T03:51:17.543Z,77.62
2018-03-21T03:53:45.138Z,77.13
2018-03-21T03:56:12.725Z,77.21
2018-03-21T03:58:40.723Z,77.39
2018-03-21T04:01:08.321Z,77.62
2018-03-21T04:03:35.917Z,77.80
2018-03-21T04:06:05.051Z,77.68
2018-03-21T04:08:32.678Z,77.45
2018-03-21T04:11:00.244Z,77.71
2018-03-21T04:13:27.869Z,77.58
2018-03-21T04:15:55.490Z,77.37
2018-03-21T04:18:23.089Z,77.34
2018-03-21T04:20:51.041Z,77.50
2018-03-21T04:23:18.645Z,77.39
2018-03-21T04:25:46.225Z,77.87
2018-03-21T04:28:13.885Z,77.96
2018-03-21T04:30:41.465Z,77.44
2018-03-21T04:33:09.109Z,77.56
2018-03-21T04:35:37.045Z,77.49
2018-03-21T04:38:04.669Z,77.69
2018-03-21T04:40:32.251Z,77.52
2018-03-21T04:42:59.876Z,77.70
2018-03-21T04:45:27.474Z,78.03
2018-03-21T04:47:55.109Z,78.07
2018-03-21T04:50:22.793Z,78.17
2018-03-21T04:52:50.360Z,78.16
2018-03-21T04:55:17.916Z,78.03
2018-03-21T04:57:45.776Z,78.50
2018-03-21T05:00:13.486Z,78.55
2018-03-21T05:02:41.391Z,77.90
2018-03-21T05:05:09.982Z,78.27
2018-03-21T05:07:37.653Z,77.98
2018-03-21T05:10:05.246Z,78.39
2018-03-21T05:12:32.900Z,78.17
2018-03-21T05:15:00.489Z,78.02
2018-03-21T05:17:28.095Z,78.19
2018-03-21T05:19:55.775Z,78.94
2018-03-21T05:22:23.386Z,79.04
2018-03-21T05:24:50.960Z,79.30
2018-03-21T05:27:18.657Z,79.40
2018-03-21T05:29:46.221Z,79.14
2018-03-21T05:32:13.813Z,79.21
2018-03-21T05:34:41.722Z,79.29
2018-03-21T05:37:09.314Z,79.36
2018-03-21T05:39:36.922Z,79.73
2018-03-21T05:42:04.584Z,79.71
2018-03-21T05:44:33.041Z,79.54
2018-03-21T05:47:00.609Z,79.92
2018-03-21T05:49:28.530Z,80.07
2018-03-21T05:51:56.104Z,80.48
2018-03-21T05:54:23.681Z,80.34
2018-03-21T05:56:51.339Z,80.44
2018-03-21T05:59:18.990Z,80.79
2018-03-21T06:01:46.566Z,80.62
2018-03-21T06:04:14.274Z,80.65
2018-03-21T06:06:41.842Z,80.37
2018-03-21T06:09:09.570Z,80.10
2018-03-21T06:11:37.445Z,79.86
2018-03-21T06:14:05.099Z,79.89
2018-03-21T06:16:32.698Z,80.22
2018-03-21T06:19:00.358Z,79.64
2018-03-21T06:21:27.915Z,80.02
2018-03-21T06:23:55.494Z,79.84
2018-03-21T06:26:23.415Z,80.16
2018-03-21T06:28:51.065Z,79.91
2018-03-21T06:31:18.662Z,80.07
2018-03-21T06:33:46.358Z,79.61
2018-03-21T06:36:13.929Z,79.59
2018-03-21T06:38:41.606Z,79.85
2018-03-21T06:41:09.297Z,79.91
2018-03-21T06:43:37.432Z,80.02
2018-03-21T06:46:05.086Z,79.87
2018-03-21T06:48:32.738Z,79.72
2018-03-21T06:51:00.326Z,79.80
2018-03-21T06:53:28.041Z,80.42
2018-03-21T06:55:55.692Z,80.58
2018-03-21T06:58:23.296Z,80.70
2018-03-21T07:00:50.946Z,80.90
2018-03-21T07:03:18.800Z,81.25
2018-03-21T07:05:46.395Z,81.54
2018-03-21T07:08:14.067Z,81.17
2018-03-21T07:10:41.864Z,80.52
2018-03-21T07:13:09.459Z,80.28
2018-03-21T07:15:49.102Z,80.10
2018-03-21T07:18:16.692Z,80.34
2018-03-21T07:20:44.285Z,79.86
2018-03-21T07:23:12.030Z,80.25
2018-03-21T07:25:39.575Z,80.29
2018-03-21T07:28:07.209Z,80.78
2018-03-21T07:30:37.204Z,81.13
2018-03-21T07:33:04.814Z,81.19
2018-03-21T07:35:32.467Z,81.14
2018-03-21T07:38:00.414Z,81.25
2018-03-21T07:40:28.010Z,81.40
2018-03-21T07:42:55.612Z,81.48
2018-03-21T07:45:23.282Z,81.94
2018-03-21T07:47:51.714Z,81.66
2018-03-21T07:50:19.303Z,81.56
2018-03-21T07:52:46.971Z,81.29
2018-03-21T07:55:14.570Z,81.65
2018-03-21T07:57:42.223Z,81.80
2018-03-21T08:00:09.873Z,81.41
2018-03-21T08:02:37.484Z,81.20
2018-03-21T08:05:05.167Z,81.48
2018-03-21T08:07:32.824Z,81.71
2018-03-21T08:10:00.413Z,81.72
2018-03-21T08:12:28.097Z,81.97
2018-03-21T08:14:55.726Z,82.53
2018-03-21T08:17:23.300Z,82.66
2018-03-21T08:19:50.890Z,82.45
2018-03-21T08:22:18.717Z,82.70
2018-03-21T08:24:46.314Z,82.64
2018-03-21T08:27:13.898Z,82.17
2018-03-21T08:29:41.533Z,81.79
2018-03-21T08:32:09.121Z,81.41
2018-03-21T08:34:36.774Z,80.88
2018-03-21T08:37:05.372Z,80.90
2018-03-21T08:39:32.946Z,80.05
2018-03-21T08:42:00.542Z,79.75
2018-03-21T08:44:28.168Z,79.98
2018-03-21T08:46:55.749Z,79.45
2018-03-21T08:49:23.328Z,79.21
2018-03-21T08:51:51.271Z,78.79
2018-03-21T08:54:18.851Z,79.38
2018-03-21T08:56:46.522Z,78.59
2018-03-21T08:59:14.152Z,79.07
2018-03-21T09:01:41.757Z,78.77
2018-03-21T09:04:09.718Z,78.20
2018-03-21T09:06:37.352Z,78.77
2018-03-21T09:09:05.043Z,78.32
2018-03-21T09:11:32.636Z,78.61
2018-03-21T09:14:00.445Z,79.14
2018-03-21T09:16:28.043Z,79.27
2018-03-21T09:18:55.634Z,78.90
2018-03-21T09:21:23.302Z,78.43
2018-03-21T09:23:50.898Z,78.72
2018-03-21T09:26:18.499Z,78.74
2018-03-21T09:28:46.148Z,78.16
2018-03-21T09:31:14.499Z,78.50
2018-03-21T09:33:42.092Z,78.53
2018-03-21T09:36:09.743Z,77.41
2018-03-21T09:38:37.407Z,76.87
2018-03-21T09:41:05.012Z,76.55
2018-03-21T09:43:32.663Z,76.01
2018-03-21T09:46:00.244Z,75.64
2018-03-21T09:48:27.923Z,74.64
2018-03-21T09:50:55.553Z,74.19
2018-03-21T09:53:23.142Z,73.83
2018-03-21T09:55:50.803Z,73.30
2018-03-21T09:58:18.505Z,73.53
2018-03-21T10:00:46.137Z,73.40
2018-03-21T10:03:13.795Z,72.98
2018-03-21T10:05:41.528Z,73.07
2018-03-21T10:08:09.196Z,72.27
2018-03-21T10:10:36.844Z,73.13
2018-03-21T10:13:04.509Z,71.74
2018-03-21T10:15:32.233Z,69.81
2018-03-21T10:17:59.896Z,70.05
2018-03-21T10:20:27.562Z,67.89
2018-03-21T10:22:55.158Z,67.48
2018-03-21T10:25:22.744Z,67.83
2018-03-21T10:27:50.606Z,68.75
2018-03-21T10:30:18.283Z,68.73
2018-03-21T10:32:46.460Z,69.51
2018-03-21T10:35:14.359Z,68.94
2018-03-21T10:37:41.949Z,68.82
2018-03-21T10:40:09.587Z,68.16
2018-03-21T10:42:37.226Z,68.67
2018-03-21T10:45:04.929Z,68.14
2018-03-21T10:47:32.607Z,67.55
2018-03-21T10:50:00.951Z,67.42
2018-03-21T10:52:38.778Z,67.97
2018-03-21T10:54:56.248Z,70.19
2018-03-21T10:57:23.913Z,68.30
2018-03-21T10:59:51.511Z,67.99
2018-03-21T11:02:19.127Z,67.41
2018-03-21T11:04:46.867Z,65.88
2018-03-21T11:07:14.460Z,65.61
2018-03-21T11:09:42.079Z,65.80
2018-03-21T11:12:09.997Z,65.34
2018-03-21T11:14:37.590Z,66.47
2018-03-21T11:17:05.330Z,66.68
2018-03-21T11:19:32.993Z,66.12
2018-03-21T11:22:00.595Z,66.94
2018-03-21T11:24:28.171Z,65.51
2018-03-21T11:26:56.088Z,64.98
2018-03-21T11:29:23.666Z,65.41
2018-03-21T11:31:51.322Z,66.02
2018-03-21T11:34:20.188Z,65.00
2018-03-21T11:36:47.792Z,65.32
2018-03-21T11:39:16.314Z,65.40
2018-03-21T11:41:43.969Z,65.55
2018-03-21T11:44:11.581Z,66.24
2018-03-21T11:46:39.165Z,66.39
2018-03-21T11:49:06.790Z,65.67
2018-03-21T11:51:34.396Z,67.24
2018-03-21T11:54:01.981Z,67.56
2018-03-21T11:56:30.303Z,67.45
2018-03-21T11:58:57.931Z,68.88
2018-03-21T12:01:25.558Z,69.16
2018-03-21T12:03:53.254Z,69.04
2018-03-21T12:06:20.861Z,69.25
2018-03-21T12:08:48.470Z,70.41
2018-03-21T12:11:16.122Z,68.72
2018-03-21T12:13:44.543Z,70.30
2018-03-21T12:16:12.174Z,69.74
2018-03-21T12:18:39.898Z,70.17
2018-03-21T12:21:07.504Z,69.66
2018-03-21T12:23:35.117Z,69.23
2018-03-21T12:26:02.768Z,69.90
2018-03-21T12:28:30.359Z,68.99
2018-03-21T12:30:57.972Z,69.84
2018-03-21T12:33:25.599Z,69.48
2018-03-21T12:35:53.209Z,72.04
2018-03-21T12:38:20.805Z,72.09
2018-03-21T12:40:48.494Z,73.10
2018-03-21T12:43:16.126Z,71.86
2018-03-21T12:45:43.763Z,72.24
2018-03-21T12:48:11.534Z,72.25
2018-03-21T12:50:39.145Z,72.21
2018-03-21T12:53:06.740Z,73.17
2018-03-21T12:55:34.373Z,72.75
2018-03-21T12:58:01.992Z,72.86
2018-03-21T13:00:29.574Z,74.38
2018-03-21T13:02:57.291Z,73.05
2018-03-21T13:05:24.945Z,74.34
2018-03-21T13:07:52.515Z,72.80
2018-03-21T13:10:20.145Z,72.50
2018-03-21T13:12:47.794Z,71.51
2018-03-21T13:15:15.455Z,72.99
2018-03-21T13:17:43.096Z,70.64
2018-03-21T13:20:10.866Z,70.86
2018-03-21T13:22:38.517Z,70.70
2018-03-21T13:25:06.153Z,69.79
2018-03-21T13:27:33.744Z,68.42
2018-03-21T13:30:02.196Z,67.42
2018-03-21T13:32:30.070Z,66.34
2018-03-21T13:34:58.632Z,66.27
2018-03-21T13:37:26.209Z,65.84
2018-03-21T13:39:53.843Z,64.25
2018-03-21T13:42:21.448Z,63.13
2018-03-21T13:44:49.044Z,66.29
2018-03-21T13:47:16.747Z,69.33
2018-03-21T13:49:44.320Z,68.80
2018-03-21T13:52:11.920Z,68.75
2018-03-21T13:54:39.569Z,66.28
2018-03-21T13:57:07.199Z,66.90
2018-03-21T13:59:34.785Z,68.92
2018-03-21T14:02:02.414Z,67.35
2018-03-21T14:04:30.005Z,67.78
2018-03-21T14:06:57.606Z,67.36
2018-03-21T14:09:25.248Z,67.35
2018-03-21T14:11:52.865Z,67.54
2018-03-21T14:14:20.443Z,67.23
2018-03-21T14:16:48.109Z,68.31
2018-03-21T14:19:15.705Z,68.22
2018-03-21T14:21:43.358Z,69.17
2018-03-21T14:24:11.105Z,69.74
2018-03-21T14:26:38.703Z,70.70
2018-03-21T14:29:06.634Z,72.01
2018-03-21T14:31:34.334Z,73.07
2018-03-21T14:34:01.931Z,73.11
2018-03-21T14:36:29.535Z,72.66
2018-03-21T14:38:57.177Z,72.81
2018-03-21T14:41:24.831Z,72.12
2018-03-21T14:43:52.487Z,72.55
2018-03-21T14:46:20.141Z,73.79
2018-03-21T14:48:47.726Z,74.03
2018-03-21T14:51:15.314Z,74.05
2018-03-21T14:53:42.933Z,74.03
2018-03-21T14:56:10.667Z,74.80
2018-03-21T14:58:38.315Z,75.08
2018-03-21T15:01:06.291Z,76.54
2018-03-21T15:03:33.895Z,77.44
2018-03-21T15:06:02.409Z,77.58
2018-03-21T15:08:30.082Z,77.66
2018-03-21T15:10:57.678Z,77.70
2018-03-21T15:13:25.300Z,77.61
2018-03-21T15:15:52.930Z,77.63
2018-03-21T15:18:20.536Z,78.22
2018-03-21T15:20:48.138Z,78.87
2018-03-21T15:23:15.910Z,79.41
2018-03-21T15:25:43.518Z,79.58
2018-03-21T15:28:11.132Z,79.91
2018-03-21T15:30:38.777Z,79.73
2018-03-21T15:33:06.402Z,80.21
2018-03-21T15:35:34.096Z,79.82
2018-03-21T15:38:01.918Z,79.80
2018-03-21T15:40:30.268Z,79.64
2018-03-21T15:43:16.364Z,80.21
2018-03-21T15:45:45.413Z,80.33
2018-03-21T15:48:13.055Z,80.89
2018-03-21T15:50:40.645Z,80.85
2018-03-21T15:53:08.299Z,80.80
2018-03-21T15:55:35.943Z,80.25
2018-03-21T15:58:03.639Z,80.72
2018-03-21T16:00:31.302Z,80.78
2018-03-21T16:02:58.946Z,80.79
2018-03-21T16:05:26.563Z,80.95
2018-03-21T16:07:54.152Z,81.00
2018-03-21T16:10:21.806Z,80.99
2018-03-21T16:12:49.429Z,81.08
2018-03-21T16:15:17.055Z,81.23
2018-03-21T16:17:44.680Z,80.61
2018-03-21T16:20:12.281Z,80.43
2018-03-21T16:22:39.871Z,80.07
2018-03-21T16:25:07.697Z,80.02
2018-03-21T16:27:35.351Z,80.18
2018-03-21T16:30:02.982Z,79.93
2018-03-21T16:32:31.324Z,80.19
2018-03-21T16:34:58.948Z,80.20
2018-03-21T16:37:26.563Z,80.27
2018-03-21T16:39:54.210Z,79.75
2018-03-21T16:42:21.906Z,79.59
2018-03-21T16:44:49.525Z,79.39
2018-03-21T16:47:17.181Z,79.86
2018-03-21T16:49:44.774Z,79.81
2018-03-21T16:52:12.415Z,79.30
2018-03-21T16:54:40.084Z,78.99
2018-03-21T16:57:08.189Z,73.60
2018-03-21T16:59:35.881Z,73.46
2018-03-21T17:02:03.567Z,73.55
2018-03-21T17:04:31.247Z,73.18
2018-03-21T17:06:58.866Z,72.47
2018-03-21T17:09:26.864Z,70.54
2018-03-21T17:11:54.538Z,69.13
2018-03-21T17:14:22.190Z,69.22
2018-03-21T17:16:50.077Z,68.74
2018-03-21T17:19:18.325Z,69.00
2018-03-21T17:21:46.039Z,69.03
2018-03-21T17:24:13.736Z,69.79
2018-03-21T17:26:41.665Z,70.83
2018-03-21T17:29:10.033Z,70.80
2018-03-21T17:31:38.201Z,70.81
2018-03-21T17:34:06.053Z,70.95
2018-03-21T17:36:33.962Z,71.26
2018-03-21T17:39:02.184Z,70.78
2018-03-21T17:41:30.136Z,71.27
2018-03-21T17:43:58.012Z,71.07
2018-03-21T17:46:25.980Z,71.09
2018-03-21T17:48:53.835Z,70.17
2018-03-21T17:51:21.751Z,70.24
2018-03-21T17:53:49.699Z,69.68
2018-03-21T17:56:17.615Z,69.47
2018-03-21T17:58:45.529Z,70.19
2018-03-21T18:01:13.526Z,67.58
2018-03-21T18:03:41.429Z,68.05
2018-03-21T18:06:09.398Z,66.42
2018-03-21T18:08:37.343Z,66.37
2018-03-21T18:11:05.155Z,66.89
2018-03-21T18:13:33.039Z,65.64
2018-03-21T18:16:01.229Z,66.00
2018-03-21T18:18:29.105Z,66.58
2018-03-21T18:20:56.979Z,66.38
2018-03-21T18:23:24.957Z,66.43
2018-03-21T18:25:52.940Z,66.72
2018-03-21T18:28:20.971Z,66.75
2018-03-21T18:30:48.904Z,67.33
2018-03-21T18:33:16.786Z,67.70
2018-03-21T18:35:44.675Z,67.44
2018-03-21T18:38:12.593Z,66.88
2018-03-21T18:40:40.459Z,66.38
2018-03-21T18:43:08.368Z,67.26
2018-03-21T18:45:36.306Z,67.70
2018-03-21T18:48:04.179Z,67.92
2018-03-21T18:50:32.800Z,67.62
2018-03-21T18:53:01.363Z,67.71
2018-03-21T18:55:29.864Z,67.56
2018-03-21T18:57:57.738Z,66.94
2018-03-21T19:00:25.645Z,67.36
2018-03-21T19:02:53.990Z,67.42
2018-03-21T19:05:21.864Z,67.23
2018-03-21T19:07:49.856Z,67.85
2018-03-21T19:10:17.805Z,67.40
2018-03-21T19:12:45.697Z,67.59
2018-03-21T19:15:13.686Z,67.48
2018-03-21T19:17:41.566Z,67.27
2018-03-21T19:20:09.462Z,66.99
2018-03-21T19:22:37.395Z,67.17
2018-03-21T19:25:05.355Z,66.82
2018-03-21T19:27:33.251Z,66.27
2018-03-21T19:30:01.839Z,66.16
2018-03-21T19:32:29.759Z,66.64
2018-03-21T19:34:57.656Z,66.27
2018-03-21T19:37:26.102Z,66.88
2018-03-21T19:39:54.038Z,67.42
2018-03-21T19:42:24.899Z,67.56
2018-03-21T19:44:52.858Z,66.79
2018-03-21T19:47:20.714Z,66.61
2018-03-21T19:49:48.621Z,67.11
2018-03-21T19:52:16.798Z,67.68
2018-03-21T19:54:44.668Z,68.01
2018-03-21T19:57:12.617Z,68.05
2018-03-21T19:59:40.903Z,68.05
2018-03-21T20:02:08.787Z,68.30
2018-03-21T20:04:36.627Z,68.17
2018-03-21T20:07:04.540Z,68.30
2018-03-21T20:09:43.890Z,68.47
2018-03-21T20:12:11.830Z,68.95
2018-03-21T20:14:39.696Z,67.87
2018-03-21T20:17:07.482Z,67.13
2018-03-21T20:19:35.369Z,66.96
2018-03-21T20:22:03.234Z,66.58
2018-03-21T20:24:31.207Z,66.80
2018-03-21T20:26:59.144Z,66.59
2018-03-21T20:29:27.034Z,66.65
2018-03-21T20:31:54.968Z,66.70
2018-03-21T20:34:23.159Z,66.42
2018-03-21T20:36:51.029Z,65.55
2018-03-21T20:39:18.914Z,64.78
2018-03-21T20:41:46.824Z,64.93
2018-03-21T20:44:14.573Z,65.16
2018-03-21T20:46:42.433Z,65.53
2018-03-21T20:49:10.248Z,65.18
2018-03-21T20:51:38.005Z,65.41
2018-03-21T20:54:05.780Z,65.30
2018-03-21T20:56:33.918Z,65.04
2018-03-21T20:59:01.647Z,65.33
2018-03-21T21:01:29.286Z,65.55
2018-03-21T21:03:56.973Z,65.21
2018-03-21T21:06:24.571Z,66.00
2018-03-21T21:08:52.156Z,65.24
2018-03-21T21:11:19.791Z,65.75
2018-03-21T21:13:47.441Z,65.04
2018-03-21T21:16:15.090Z,65.26
2018-03-21T21:18:42.731Z,65.45
2018-03-21T21:21:10.318Z,64.69
2018-03-21T21:23:37.894Z,65.06
2018-03-21T21:26:05.578Z,65.75
2018-03-21T21:28:33.216Z,65.38
2018-03-21T21:31:00.795Z,65.55
2018-03-21T21:33:28.548Z,65.93
2018-03-21T21:35:56.120Z,65.55
2018-03-21T21:38:23.750Z,65.51
2018-03-21T21:40:51.627Z,65.67
2018-03-21T21:43:19.189Z,65.39
2018-03-21T21:45:46.757Z,65.50
2018-03-21T21:48:14.462Z,65.31
2018-03-21T21:50:42.081Z,65.08
2018-03-21T21:53:09.669Z,65.18
2018-03-21T21:55:37.721Z,65.15
2018-03-21T21:58:05.387Z,65.63
2018-03-21T22:00:32.932Z,65.45
2018-03-21T22:03:00.568Z,65.34
2018-03-21T22:05:28.231Z,66.11
2018-03-21T22:07:55.812Z,65.84
2018-03-21T22:10:23.436Z,65.76
2018-03-21T22:12:51.017Z,66.08
2018-03-21T22:15:18.596Z,66.43
2018-03-21T22:17:46.238Z,66.57
2018-03-21T22:20:13.821Z,66.06
2018-03-21T22:22:41.425Z,65.90
2018-03-21T22:25:09.044Z,65.48
2018-03-21T22:27:36.622Z,65.24
2018-03-21T22:30:04.285Z,65.60
2018-03-21T22:32:31.924Z,65.90
2018-03-21T22:34:59.594Z,65.41
2018-03-21T22:37:27.186Z,65.91
2018-03-21T22:39:56.154Z,66.13
2018-03-21T22:42:23.748Z,66.48
2018-03-21T22:44:51.327Z,65.47
2018-03-21T22:47:19.035Z,65.93
2018-03-21T22:49:46.629Z,65.56
2018-03-21T22:52:14.205Z,66.96
2018-03-21T22:54:42.677Z,66.44
2018-03-21T22:57:10.259Z,67.59
2018-03-21T22:59:37.858Z,68.45
2018-03-21T23:02:06.049Z,69.80
2018-03-21T23:04:33.687Z,71.51
2018-03-21T23:07:01.271Z,72.26
2018-03-21T23:09:29.132Z,73.10
2018-03-21T23:11:56.717Z,73.19
2018-03-21T23:14:24.289Z,73.84
2018-03-21T23:16:51.914Z,73.71
2018-03-21T23:19:19.497Z,73.96
2018-03-21T23:21:47.091Z,74.85
2018-03-21T23:24:15.917Z,73.81
2018-03-21T23:26:43.665Z,73.39
2018-03-21T23:29:11.250Z,72.80
2018-03-21T23:31:38.863Z,71.93
2018-03-21T23:34:06.449Z,72.61
2018-03-21T23:36:34.373Z,72.33
2018-03-21T23:39:01.993Z,72.73
2018-03-21T23:41:29.654Z,73.48
2018-03-21T23:43:57.225Z,73.22
2018-03-21T23:46:25.093Z,73.77
2018-03-21T23:48:52.782Z,73.28
2018-03-21T23:51:20.369Z,73.62
2018-03-21T23:53:48.472Z,72.92
2018-03-21T23:56:16.136Z,73.53
2018-03-21T23:58:43.724Z,72.40
